sensor_id;sensor_type;location;lat;lon;timestamp;temperature;humidity
27707;DHT22;36332;51.384;0.040;2023-09-12T00:02:17;19.40;99.90
27707;DHT22;36332;51.384;0.040;2023-09-12T00:04:44;19.50;99.90
27707;DHT22;36332;51.384;0.040;2023-09-12T00:07:12;19.40;99.90
27707;DHT22;36332;51.384;0.040;2023-09-12T00:09:39;19.40;99.90
27707;DHT22;36332;51.384;0.040;2023-09-12T00:12:07;19.40;99.90
27707;DHT22;36332;51.384;0.040;2023-09-12T00:14:35;19.40;99.90
27707;DHT22;36332;51.384;0.040;2023-09-12T00:17:03;19.40;99.90
27707;DHT22;36332;51.384;0.040;2023-09-12T00:19:30;19.40;99.90
27707;DHT22;36332;51.384;0.040;2023-09-12T00:21:58;19.40;99.90
27707;DHT22;36332;51.384;0.040;2023-09-12T00:24:25;19.30;99.90
27707;DHT22;36332;51.384;0.040;2023-09-12T00:26:53;19.30;99.90
27707;DHT22;36332;51.384;0.040;2023-09-12T00:29:21;19.30;99.90
27707;DHT22;36332;51.384;0.040;2023-09-12T00:31:48;19.20;99.90
27707;DHT22;36332;51.384;0.040;2023-09-12T00:34:16;19.20;99.90
27707;DHT22;36332;51.384;0.040;2023-09-12T00:36:44;19.20;99.90
27707;DHT22;36332;51.384;0.040;2023-09-12T00:39:12;19.20;99.90
27707;DHT22;36332;51.384;0.040;2023-09-12T00:41:40;19.20;99.90
27707;DHT22;36332;51.384;0.040;2023-09-12T00:44:07;19.20;99.90
27707;DHT22;36332;51.384;0.040;2023-09-12T00:46:36;19.20;99.90
27707;DHT22;36332;51.384;0.040;2023-09-12T00:49:06;19.10;99.90
27707;DHT22;36332;51.384;0.040;2023-09-12T00:51:35;19.10;99.90
27707;DHT22;36332;51.384;0.040;2023-09-12T00:54:04;19.10;99.90
27707;DHT22;36332;51.384;0.040;2023-09-12T00:56:32;19.10;99.90
27707;DHT22;36332;51.384;0.040;2023-09-12T00:59:00;19.10;99.90
27707;DHT22;36332;51.384;0.040;2023-09-12T01:01:28;19.20;99.90
27707;DHT22;36332;51.384;0.040;2023-09-12T01:03:56;19.10;99.90
27707;DHT22;36332;51.384;0.040;2023-09-12T01:06:24;19.20;99.90
27707;DHT22;36332;51.384;0.040;2023-09-12T01:08:55;19.20;99.90
27707;DHT22;36332;51.384;0.040;2023-09-12T01:11:24;19.20;99.90
27707;DHT22;36332;51.384;0.040;2023-09-12T01:13:51;19.20;99.90
27707;DHT22;36332;51.384;0.040;2023-09-12T01:16:19;19.10;99.90
27707;DHT22;36332;51.384;0.040;2023-09-12T01:18:47;19.20;99.90
27707;DHT22;36332;51.384;0.040;2023-09-12T01:22:01;19.20;99.90
27707;DHT22;36332;51.384;0.040;2023-09-12T01:27:30;19.10;99.90
27707;DHT22;36332;51.384;0.040;2023-09-12T01:30:05;19.10;99.90
27707;DHT22;36332;51.384;0.040;2023-09-12T01:32:34;19.10;99.90
27707;DHT22;36332;51.384;0.040;2023-09-12T01:35:03;19.10;99.90
27707;DHT22;36332;51.384;0.040;2023-09-12T01:37:31;19.20;99.90
27707;DHT22;36332;51.384;0.040;2023-09-12T01:39:59;19.20;99.90
27707;DHT22;36332;51.384;0.040;2023-09-12T01:42:31;19.20;99.90
27707;DHT22;36332;51.384;0.040;2023-09-12T01:45:03;19.20;99.90
27707;DHT22;36332;51.384;0.040;2023-09-12T01:47:33;19.20;99.90
27707;DHT22;36332;51.384;0.040;2023-09-12T01:50:02;19.30;99.90
27707;DHT22;36332;51.384;0.040;2023-09-12T01:52:31;19.30;99.90
27707;DHT22;36332;51.384;0.040;2023-09-12T01:54:59;19.30;99.90
27707;DHT22;36332;51.384;0.040;2023-09-12T01:57:28;19.30;99.90
27707;DHT22;36332;51.384;0.040;2023-09-12T01:59:56;19.40;99.90
27707;DHT22;36332;51.384;0.040;2023-09-12T02:02:23;19.40;99.90
27707;DHT22;36332;51.384;0.040;2023-09-12T02:04:58;19.40;99.90
27707;DHT22;36332;51.384;0.040;2023-09-12T02:07:33;19.40;99.90
27707;DHT22;36332;51.384;0.040;2023-09-12T02:10:03;19.40;99.90
27707;DHT22;36332;51.384;0.040;2023-09-12T02:12:32;19.40;99.90
27707;DHT22;36332;51.384;0.040;2023-09-12T02:15:00;19.40;99.90
27707;DHT22;36332;51.384;0.040;2023-09-12T02:17:27;19.40;99.90
27707;DHT22;36332;51.384;0.040;2023-09-12T02:19:55;19.30;99.90
27707;DHT22;36332;51.384;0.040;2023-09-12T02:22:22;19.30;99.90
27707;DHT22;36332;51.384;0.040;2023-09-12T02:24:52;19.40;99.90
27707;DHT22;36332;51.384;0.040;2023-09-12T02:27:19;19.40;99.90
27707;DHT22;36332;51.384;0.040;2023-09-12T02:29:47;19.40;99.90
27707;DHT22;36332;51.384;0.040;2023-09-12T02:32:14;19.50;99.90
27707;DHT22;36332;51.384;0.040;2023-09-12T02:34:42;19.40;99.90
27707;DHT22;36332;51.384;0.040;2023-09-12T02:37:09;19.40;99.90
27707;DHT22;36332;51.384;0.040;2023-09-12T02:39:37;19.40;99.90
27707;DHT22;36332;51.384;0.040;2023-09-12T02:42:05;19.30;99.90
27707;DHT22;36332;51.384;0.040;2023-09-12T02:44:33;19.30;99.90
27707;DHT22;36332;51.384;0.040;2023-09-12T02:47:04;19.20;99.90
27707;DHT22;36332;51.384;0.040;2023-09-12T02:49:33;19.30;99.90
27707;DHT22;36332;51.384;0.040;2023-09-12T02:52:01;19.40;99.90
27707;DHT22;36332;51.384;0.040;2023-09-12T02:54:28;19.30;99.90
27707;DHT22;36332;51.384;0.040;2023-09-12T02:56:56;19.30;99.90
27707;DHT22;36332;51.384;0.040;2023-09-12T02:59:23;19.30;99.90
27707;DHT22;36332;51.384;0.040;2023-09-12T03:01:51;19.30;99.90
27707;DHT22;36332;51.384;0.040;2023-09-12T03:04:19;19.30;99.90
27707;DHT22;36332;51.384;0.040;2023-09-12T03:06:47;19.30;99.90
27707;DHT22;36332;51.384;0.040;2023-09-12T03:09:14;19.30;99.90
27707;DHT22;36332;51.384;0.040;2023-09-12T03:11:45;19.20;99.90
27707;DHT22;36332;51.384;0.040;2023-09-12T03:14:12;19.30;99.90
27707;DHT22;36332;51.384;0.040;2023-09-12T03:16:40;19.30;99.90
27707;DHT22;36332;51.384;0.040;2023-09-12T03:19:08;19.30;99.90
27707;DHT22;36332;51.384;0.040;2023-09-12T03:21:35;19.30;99.90
27707;DHT22;36332;51.384;0.040;2023-09-12T03:24:03;19.30;99.90
27707;DHT22;36332;51.384;0.040;2023-09-12T03:26:34;19.30;99.90
27707;DHT22;36332;51.384;0.040;2023-09-12T03:29:03;19.30;99.90
27707;DHT22;36332;51.384;0.040;2023-09-12T03:31:31;19.30;99.90
27707;DHT22;36332;51.384;0.040;2023-09-12T03:33:58;19.30;99.90
27707;DHT22;36332;51.384;0.040;2023-09-12T03:36:26;19.30;99.90
27707;DHT22;36332;51.384;0.040;2023-09-12T03:38:54;19.40;99.90
27707;DHT22;36332;51.384;0.040;2023-09-12T03:41:22;19.40;99.90
27707;DHT22;36332;51.384;0.040;2023-09-12T03:43:54;19.40;99.90
27707;DHT22;36332;51.384;0.040;2023-09-12T03:46:22;19.40;99.90
27707;DHT22;36332;51.384;0.040;2023-09-12T03:48:50;19.40;99.90
27707;DHT22;36332;51.384;0.040;2023-09-12T03:51:18;19.40;99.90
27707;DHT22;36332;51.384;0.040;2023-09-12T03:53:46;19.40;99.90
27707;DHT22;36332;51.384;0.040;2023-09-12T03:56:15;19.40;99.90
27707;DHT22;36332;51.384;0.040;2023-09-12T03:58:43;19.40;99.90
27707;DHT22;36332;51.384;0.040;2023-09-12T04:01:11;19.40;99.90
27707;DHT22;36332;51.384;0.040;2023-09-12T04:03:39;19.40;99.90
27707;DHT22;36332;51.384;0.040;2023-09-12T04:06:07;19.40;99.90
27707;DHT22;36332;51.384;0.040;2023-09-12T04:08:35;19.40;99.90
27707;DHT22;36332;51.384;0.040;2023-09-12T04:11:02;19.40;99.90
27707;DHT22;36332;51.384;0.040;2023-09-12T04:13:30;19.40;99.90
27707;DHT22;36332;51.384;0.040;2023-09-12T04:15:58;19.30;99.90
27707;DHT22;36332;51.384;0.040;2023-09-12T04:18:26;19.30;99.90
27707;DHT22;36332;51.384;0.040;2023-09-12T04:20:53;19.30;99.90
27707;DHT22;36332;51.384;0.040;2023-09-12T04:23:25;19.30;99.90
27707;DHT22;36332;51.384;0.040;2023-09-12T04:25:53;19.30;99.90
27707;DHT22;36332;51.384;0.040;2023-09-12T04:28:21;19.30;99.90
27707;DHT22;36332;51.384;0.040;2023-09-12T04:30:49;19.30;99.90
27707;DHT22;36332;51.384;0.040;2023-09-12T04:33:17;19.30;99.90
27707;DHT22;36332;51.384;0.040;2023-09-12T04:35:44;19.30;99.90
27707;DHT22;36332;51.384;0.040;2023-09-12T04:38:12;19.30;99.90
27707;DHT22;36332;51.384;0.040;2023-09-12T04:40:41;19.20;99.90
27707;DHT22;36332;51.384;0.040;2023-09-12T04:43:08;19.30;99.90
27707;DHT22;36332;51.384;0.040;2023-09-12T04:45:36;19.30;99.90
27707;DHT22;36332;51.384;0.040;2023-09-12T04:48:04;19.30;99.90
27707;DHT22;36332;51.384;0.040;2023-09-12T04:50:32;19.30;99.90
27707;DHT22;36332;51.384;0.040;2023-09-12T04:52:59;19.30;99.90
27707;DHT22;36332;51.384;0.040;2023-09-12T04:55:27;19.30;99.90
27707;DHT22;36332;51.384;0.040;2023-09-12T04:57:56;19.20;99.90
27707;DHT22;36332;51.384;0.040;2023-09-12T05:00:23;19.30;99.90
27707;DHT22;36332;51.384;0.040;2023-09-12T05:02:51;19.30;99.90
27707;DHT22;36332;51.384;0.040;2023-09-12T05:05:18;19.30;99.90
27707;DHT22;36332;51.384;0.040;2023-09-12T05:10:15;19.30;99.90
27707;DHT22;36332;51.384;0.040;2023-09-12T05:12:42;19.30;99.90
27707;DHT22;36332;51.384;0.040;2023-09-12T05:15:10;19.30;99.90
27707;DHT22;36332;51.384;0.040;2023-09-12T05:17:38;19.30;99.90
27707;DHT22;36332;51.384;0.040;2023-09-12T05:20:06;19.30;99.90
27707;DHT22;36332;51.384;0.040;2023-09-12T05:25:02;19.30;99.90
27707;DHT22;36332;51.384;0.040;2023-09-12T05:27:30;19.30;99.90
27707;DHT22;36332;51.384;0.040;2023-09-12T05:29:58;19.20;99.90
27707;DHT22;36332;51.384;0.040;2023-09-12T05:32:25;19.20;99.90
27707;DHT22;36332;51.384;0.040;2023-09-12T05:34:53;19.20;99.90
27707;DHT22;36332;51.384;0.040;2023-09-12T05:40:05;19.20;99.90
27707;DHT22;36332;51.384;0.040;2023-09-12T05:42:33;19.20;99.90
27707;DHT22;36332;51.384;0.040;2023-09-12T05:45:01;19.30;99.90
27707;DHT22;36332;51.384;0.040;2023-09-12T05:47:29;19.20;99.90
27707;DHT22;36332;51.384;0.040;2023-09-12T05:49:56;19.20;99.90
27707;DHT22;36332;51.384;0.040;2023-09-12T05:52:26;19.20;99.90
27707;DHT22;36332;51.384;0.040;2023-09-12T05:54:54;19.10;99.90
27707;DHT22;36332;51.384;0.040;2023-09-12T05:57:22;19.10;99.90
27707;DHT22;36332;51.384;0.040;2023-09-12T05:59:50;19.10;99.90
27707;DHT22;36332;51.384;0.040;2023-09-12T06:02:18;19.10;99.90
27707;DHT22;36332;51.384;0.040;2023-09-12T06:04:45;19.10;99.90
27707;DHT22;36332;51.384;0.040;2023-09-12T06:07:13;19.10;99.90
27707;DHT22;36332;51.384;0.040;2023-09-12T06:09:41;19.10;99.90
27707;DHT22;36332;51.384;0.040;2023-09-12T06:12:08;19.10;99.90
27707;DHT22;36332;51.384;0.040;2023-09-12T06:14:36;19.10;99.90
27707;DHT22;36332;51.384;0.040;2023-09-12T06:17:03;19.20;99.90
27707;DHT22;36332;51.384;0.040;2023-09-12T06:19:31;19.20;99.90
27707;DHT22;36332;51.384;0.040;2023-09-12T06:21:59;19.20;99.90
27707;DHT22;36332;51.384;0.040;2023-09-12T06:24:26;19.20;99.90
27707;DHT22;36332;51.384;0.040;2023-09-12T06:26:55;19.20;99.90
27707;DHT22;36332;51.384;0.040;2023-09-12T06:29:22;19.20;99.90
27707;DHT22;36332;51.384;0.040;2023-09-12T06:31:50;19.30;99.90
27707;DHT22;36332;51.384;0.040;2023-09-12T06:34:17;19.40;99.90
27707;DHT22;36332;51.384;0.040;2023-09-12T06:36:45;19.30;99.90
27707;DHT22;36332;51.384;0.040;2023-09-12T06:39:13;19.40;99.90
27707;DHT22;36332;51.384;0.040;2023-09-12T06:41:41;19.50;99.90
27707;DHT22;36332;51.384;0.040;2023-09-12T06:44:08;19.50;99.90
27707;DHT22;36332;51.384;0.040;2023-09-12T06:46:36;19.60;99.90
27707;DHT22;36332;51.384;0.040;2023-09-12T06:49:05;19.70;99.90
27707;DHT22;36332;51.384;0.040;2023-09-12T06:51:32;19.70;99.90
27707;DHT22;36332;51.384;0.040;2023-09-12T06:54:04;19.80;99.90
27707;DHT22;36332;51.384;0.040;2023-09-12T06:56:32;19.80;99.90
27707;DHT22;36332;51.384;0.040;2023-09-12T06:59:00;19.80;99.90
27707;DHT22;36332;51.384;0.040;2023-09-12T07:01:27;19.90;99.90
27707;DHT22;36332;51.384;0.040;2023-09-12T07:03:55;19.90;99.90
27707;DHT22;36332;51.384;0.040;2023-09-12T07:06:23;19.90;99.90
27707;DHT22;36332;51.384;0.040;2023-09-12T07:08:51;20.10;99.90
27707;DHT22;36332;51.384;0.040;2023-09-12T07:11:19;20.00;99.90
27707;DHT22;36332;51.384;0.040;2023-09-12T07:13:47;20.10;99.90
27707;DHT22;36332;51.384;0.040;2023-09-12T07:16:16;20.10;99.90
27707;DHT22;36332;51.384;0.040;2023-09-12T07:18:48;20.20;99.90
27707;DHT22;36332;51.384;0.040;2023-09-12T07:21:16;20.20;99.90
27707;DHT22;36332;51.384;0.040;2023-09-12T07:23:44;20.30;99.90
27707;DHT22;36332;51.384;0.040;2023-09-12T07:26:13;20.30;99.90
27707;DHT22;36332;51.384;0.040;2023-09-12T07:28:41;20.20;99.90
27707;DHT22;36332;51.384;0.040;2023-09-12T07:31:09;20.30;99.90
27707;DHT22;36332;51.384;0.040;2023-09-12T07:33:37;20.30;99.90
27707;DHT22;36332;51.384;0.040;2023-09-12T07:36:04;20.30;99.90
27707;DHT22;36332;51.384;0.040;2023-09-12T07:38:32;20.20;99.90
27707;DHT22;36332;51.384;0.040;2023-09-12T07:41:02;20.20;99.90
27707;DHT22;36332;51.384;0.040;2023-09-12T07:43:30;20.20;99.90
27707;DHT22;36332;51.384;0.040;2023-09-12T07:45:58;20.10;99.90
27707;DHT22;36332;51.384;0.040;2023-09-12T07:48:26;20.10;99.90
27707;DHT22;36332;51.384;0.040;2023-09-12T07:50:55;20.10;99.90
27707;DHT22;36332;51.384;0.040;2023-09-12T07:53:22;20.10;99.90
27707;DHT22;36332;51.384;0.040;2023-09-12T07:55:50;20.00;99.90
27707;DHT22;36332;51.384;0.040;2023-09-12T07:58:19;20.10;99.90
27707;DHT22;36332;51.384;0.040;2023-09-12T08:00:47;20.10;99.90
27707;DHT22;36332;51.384;0.040;2023-09-12T08:03:14;20.10;99.90
27707;DHT22;36332;51.384;0.040;2023-09-12T08:05:43;20.00;99.90
27707;DHT22;36332;51.384;0.040;2023-09-12T08:08:10;20.10;99.90
27707;DHT22;36332;51.384;0.040;2023-09-12T08:10:38;20.00;99.90
27707;DHT22;36332;51.384;0.040;2023-09-12T08:13:06;20.10;99.90
27707;DHT22;36332;51.384;0.040;2023-09-12T08:15:33;20.20;99.90
27707;DHT22;36332;51.384;0.040;2023-09-12T08:18:01;20.20;99.90
27707;DHT22;36332;51.384;0.040;2023-09-12T08:20:28;20.30;99.90
27707;DHT22;36332;51.384;0.040;2023-09-12T08:22:56;20.40;99.90
27707;DHT22;36332;51.384;0.040;2023-09-12T08:25:23;20.50;99.90
27707;DHT22;36332;51.384;0.040;2023-09-12T08:27:52;20.60;99.90
27707;DHT22;36332;51.384;0.040;2023-09-12T08:30:19;20.70;99.90
27707;DHT22;36332;51.384;0.040;2023-09-12T08:32:49;20.80;99.90
27707;DHT22;36332;51.384;0.040;2023-09-12T08:35:17;20.80;99.90
27707;DHT22;36332;51.384;0.040;2023-09-12T08:37:45;20.80;99.90
27707;DHT22;36332;51.384;0.040;2023-09-12T08:40:12;20.90;99.90
27707;DHT22;36332;51.384;0.040;2023-09-12T08:42:42;21.00;99.90
27707;DHT22;36332;51.384;0.040;2023-09-12T08:45:14;22.50;99.90
27707;DHT22;36332;51.384;0.040;2023-09-12T08:47:44;21.10;99.90
27707;DHT22;36332;51.384;0.040;2023-09-12T08:50:15;21.10;99.90
27707;DHT22;36332;51.384;0.040;2023-09-12T08:52:46;21.00;99.90
27707;DHT22;36332;51.384;0.040;2023-09-12T08:55:26;21.10;99.90
27707;DHT22;36332;51.384;0.040;2023-09-12T08:57:55;21.10;99.90
27707;DHT22;36332;51.384;0.040;2023-09-12T09:00:23;21.20;99.90
27707;DHT22;36332;51.384;0.040;2023-09-12T09:02:52;21.30;99.90
27707;DHT22;36332;51.384;0.040;2023-09-12T09:05:21;21.40;99.90
27707;DHT22;36332;51.384;0.040;2023-09-12T09:07:51;21.40;99.90
27707;DHT22;36332;51.384;0.040;2023-09-12T09:10:22;21.40;99.90
27707;DHT22;36332;51.384;0.040;2023-09-12T09:13:08;21.40;99.90
27707;DHT22;36332;51.384;0.040;2023-09-12T09:15:38;21.40;99.90
27707;DHT22;36332;51.384;0.040;2023-09-12T09:18:10;21.40;99.90
27707;DHT22;36332;51.384;0.040;2023-09-12T09:20:40;21.40;99.90
27707;DHT22;36332;51.384;0.040;2023-09-12T09:23:13;21.40;99.90
27707;DHT22;36332;51.384;0.040;2023-09-12T09:25:43;21.50;99.90
27707;DHT22;36332;51.384;0.040;2023-09-12T09:28:19;21.50;99.90
27707;DHT22;36332;51.384;0.040;2023-09-12T09:30:48;21.50;99.90
27707;DHT22;36332;51.384;0.040;2023-09-12T09:33:16;21.50;99.90
27707;DHT22;36332;51.384;0.040;2023-09-12T09:35:48;21.60;99.90
27707;DHT22;36332;51.384;0.040;2023-09-12T09:38:19;21.60;99.90
27707;DHT22;36332;51.384;0.040;2023-09-12T09:40:48;21.60;99.90
27707;DHT22;36332;51.384;0.040;2023-09-12T09:43:22;21.70;99.90
27707;DHT22;36332;51.384;0.040;2023-09-12T09:45:50;23.30;99.90
27707;DHT22;36332;51.384;0.040;2023-09-12T09:48:25;22.00;99.90
27707;DHT22;36332;51.384;0.040;2023-09-12T09:51:04;22.00;99.90
27707;DHT22;36332;51.384;0.040;2023-09-12T09:53:31;22.10;99.90
27707;DHT22;36332;51.384;0.040;2023-09-12T09:56:14;22.60;99.90
27707;DHT22;36332;51.384;0.040;2023-09-12T10:01:21;22.90;99.90
27707;DHT22;36332;51.384;0.040;2023-09-12T10:03:50;23.10;99.90
27707;DHT22;36332;51.384;0.040;2023-09-12T10:06:22;23.40;99.90
27707;DHT22;36332;51.384;0.040;2023-09-12T10:08:51;23.50;99.90
27707;DHT22;36332;51.384;0.040;2023-09-12T10:11:22;23.60;99.90
27707;DHT22;36332;51.384;0.040;2023-09-12T10:13:58;23.70;99.90
27707;DHT22;36332;51.384;0.040;2023-09-12T10:16:30;23.80;99.90
27707;DHT22;36332;51.384;0.040;2023-09-12T10:21:30;24.10;99.90
27707;DHT22;36332;51.384;0.040;2023-09-12T10:23:59;24.20;99.90
27707;DHT22;36332;51.384;0.040;2023-09-12T10:26:28;24.50;99.90
27707;DHT22;36332;51.384;0.040;2023-09-12T10:28:57;24.70;99.90
27707;DHT22;36332;51.384;0.040;2023-09-12T10:31:26;24.90;99.90
27707;DHT22;36332;51.384;0.040;2023-09-12T10:33:55;25.00;99.90
27707;DHT22;36332;51.384;0.040;2023-09-12T10:36:26;25.20;99.90
27707;DHT22;36332;51.384;0.040;2023-09-12T10:38:55;25.40;99.90
27707;DHT22;36332;51.384;0.040;2023-09-12T10:41:24;25.40;99.90
27707;DHT22;36332;51.384;0.040;2023-09-12T10:43:53;25.40;99.90
27707;DHT22;36332;51.384;0.040;2023-09-12T10:46:21;25.30;99.90
27707;DHT22;36332;51.384;0.040;2023-09-12T10:48:50;25.30;99.90
27707;DHT22;36332;51.384;0.040;2023-09-12T10:51:18;25.30;99.90
27707;DHT22;36332;51.384;0.040;2023-09-12T10:53:50;25.20;99.90
27707;DHT22;36332;51.384;0.040;2023-09-12T10:56:19;25.20;99.90
27707;DHT22;36332;51.384;0.040;2023-09-12T11:01:44;25.20;99.90
27707;DHT22;36332;51.384;0.040;2023-09-12T11:06:47;24.90;99.90
27707;DHT22;36332;51.384;0.040;2023-09-12T11:09:26;24.80;99.90
27707;DHT22;36332;51.384;0.040;2023-09-12T11:11:58;24.70;99.90
27707;DHT22;36332;51.384;0.040;2023-09-12T11:14:26;24.40;99.90
27707;DHT22;36332;51.384;0.040;2023-09-12T11:17:20;24.30;99.90
27707;DHT22;36332;51.384;0.040;2023-09-12T11:19:50;24.30;99.90
27707;DHT22;36332;51.384;0.040;2023-09-12T11:22:25;24.30;99.90
27707;DHT22;36332;51.384;0.040;2023-09-12T11:24:54;24.20;99.90
27707;DHT22;36332;51.384;0.040;2023-09-12T11:27:26;24.20;99.90
27707;DHT22;36332;51.384;0.040;2023-09-12T11:30:05;24.20;99.90
27707;DHT22;36332;51.384;0.040;2023-09-12T11:32:35;24.30;99.90
27707;DHT22;36332;51.384;0.040;2023-09-12T11:35:08;24.40;99.90
27707;DHT22;36332;51.384;0.040;2023-09-12T11:37:36;24.50;99.90
27707;DHT22;36332;51.384;0.040;2023-09-12T11:42:40;24.60;99.90
27707;DHT22;36332;51.384;0.040;2023-09-12T11:45:09;24.90;99.90
27707;DHT22;36332;51.384;0.040;2023-09-12T11:47:40;24.90;99.90
27707;DHT22;36332;51.384;0.040;2023-09-12T11:50:09;25.40;99.90
27707;DHT22;36332;51.384;0.040;2023-09-12T11:53:03;25.40;99.90
27707;DHT22;36332;51.384;0.040;2023-09-12T11:58:04;25.80;99.90
27707;DHT22;36332;51.384;0.040;2023-09-12T12:00:33;25.80;99.90
27707;DHT22;36332;51.384;0.040;2023-09-12T12:03:01;25.70;99.90
27707;DHT22;36332;51.384;0.040;2023-09-12T12:05:28;25.70;99.90
27707;DHT22;36332;51.384;0.040;2023-09-12T12:07:58;25.70;99.90
27707;DHT22;36332;51.384;0.040;2023-09-12T12:10:50;25.60;99.90
27707;DHT22;36332;51.384;0.040;2023-09-12T12:13:19;25.70;99.90
27707;DHT22;36332;51.384;0.040;2023-09-12T12:15:47;25.60;99.90
27707;DHT22;36332;51.384;0.040;2023-09-12T12:18:15;25.60;99.90
27707;DHT22;36332;51.384;0.040;2023-09-12T12:20:43;25.60;99.90
27707;DHT22;36332;51.384;0.040;2023-09-12T12:23:10;25.60;99.90
27707;DHT22;36332;51.384;0.040;2023-09-12T12:25:38;25.50;99.90
27707;DHT22;36332;51.384;0.040;2023-09-12T12:28:07;25.40;99.90
27707;DHT22;36332;51.384;0.040;2023-09-12T12:30:36;25.30;99.90
27707;DHT22;36332;51.384;0.040;2023-09-12T12:33:09;25.20;99.90
27707;DHT22;36332;51.384;0.040;2023-09-12T12:36:03;25.10;99.90
27707;DHT22;36332;51.384;0.040;2023-09-12T12:38:37;25.10;99.90
27707;DHT22;36332;51.384;0.040;2023-09-12T12:41:15;25.10;99.90
27707;DHT22;36332;51.384;0.040;2023-09-12T12:43:43;25.00;99.90
27707;DHT22;36332;51.384;0.040;2023-09-12T12:46:11;24.90;99.90
27707;DHT22;36332;51.384;0.040;2023-09-12T12:48:43;24.90;99.90
27707;DHT22;36332;51.384;0.040;2023-09-12T12:51:24;24.90;99.90
27707;DHT22;36332;51.384;0.040;2023-09-12T12:53:54;24.90;99.90
27707;DHT22;36332;51.384;0.040;2023-09-12T12:56:26;24.90;99.90
27707;DHT22;36332;51.384;0.040;2023-09-12T12:58:59;24.90;99.90
27707;DHT22;36332;51.384;0.040;2023-09-12T13:01:30;25.00;99.90
27707;DHT22;36332;51.384;0.040;2023-09-12T13:03:58;25.00;99.90
27707;DHT22;36332;51.384;0.040;2023-09-12T13:06:26;25.00;99.90
27707;DHT22;36332;51.384;0.040;2023-09-12T13:08:55;24.90;99.90
27707;DHT22;36332;51.384;0.040;2023-09-12T13:11:24;24.90;99.90
27707;DHT22;36332;51.384;0.040;2023-09-12T13:13:52;24.70;99.90
27707;DHT22;36332;51.384;0.040;2023-09-12T13:16:20;24.70;99.90
27707;DHT22;36332;51.384;0.040;2023-09-12T13:18:48;24.60;99.90
27707;DHT22;36332;51.384;0.040;2023-09-12T13:21:16;24.70;99.90
27707;DHT22;36332;51.384;0.040;2023-09-12T13:23:43;24.60;99.90
27707;DHT22;36332;51.384;0.040;2023-09-12T13:26:11;24.50;99.90
27707;DHT22;36332;51.384;0.040;2023-09-12T13:28:40;24.50;99.90
27707;DHT22;36332;51.384;0.040;2023-09-12T13:31:08;24.60;99.90
27707;DHT22;36332;51.384;0.040;2023-09-12T13:33:35;24.60;99.90
27707;DHT22;36332;51.384;0.040;2023-09-12T13:36:03;24.80;99.90
27707;DHT22;36332;51.384;0.040;2023-09-12T13:38:31;25.00;99.90
27707;DHT22;36332;51.384;0.040;2023-09-12T13:40:59;25.20;99.90
27707;DHT22;36332;51.384;0.040;2023-09-12T13:43:26;25.40;99.90
27707;DHT22;36332;51.384;0.040;2023-09-12T13:45:55;25.60;99.90
27707;DHT22;36332;51.384;0.040;2023-09-12T13:48:23;25.70;99.90
27707;DHT22;36332;51.384;0.040;2023-09-12T13:50:50;25.80;99.90
27707;DHT22;36332;51.384;0.040;2023-09-12T13:53:18;26.00;99.90
27707;DHT22;36332;51.384;0.040;2023-09-12T13:55:46;26.20;99.90
27707;DHT22;36332;51.384;0.040;2023-09-12T13:58:24;26.40;99.90
27707;DHT22;36332;51.384;0.040;2023-09-12T14:00:59;26.40;99.90
27707;DHT22;36332;51.384;0.040;2023-09-12T14:03:27;26.40;99.90
27707;DHT22;36332;51.384;0.040;2023-09-12T14:05:58;26.50;99.90
27707;DHT22;36332;51.384;0.040;2023-09-12T14:08:27;26.70;99.90
27707;DHT22;36332;51.384;0.040;2023-09-12T14:10:55;26.70;99.90
27707;DHT22;36332;51.384;0.040;2023-09-12T14:13:24;26.70;99.90
27707;DHT22;36332;51.384;0.040;2023-09-12T14:15:52;26.70;99.90
27707;DHT22;36332;51.384;0.040;2023-09-12T14:18:20;26.70;99.90
27707;DHT22;36332;51.384;0.040;2023-09-12T14:20:49;26.70;99.90
27707;DHT22;36332;51.384;0.040;2023-09-12T14:23:20;26.70;99.90
27707;DHT22;36332;51.384;0.040;2023-09-12T14:25:49;26.80;99.90
27707;DHT22;36332;51.384;0.040;2023-09-12T14:28:17;26.70;99.90
27707;DHT22;36332;51.384;0.040;2023-09-12T14:30:46;26.60;99.90
27707;DHT22;36332;51.384;0.040;2023-09-12T14:33:17;26.60;99.90
27707;DHT22;36332;51.384;0.040;2023-09-12T14:35:47;26.40;99.90
27707;DHT22;36332;51.384;0.040;2023-09-12T14:38:15;26.20;99.90
27707;DHT22;36332;51.384;0.040;2023-09-12T14:40:42;26.20;99.90
27707;DHT22;36332;51.384;0.040;2023-09-12T14:43:12;25.90;99.90
27707;DHT22;36332;51.384;0.040;2023-09-12T14:45:40;25.80;99.90
27707;DHT22;36332;51.384;0.040;2023-09-12T14:48:08;25.80;99.90
27707;DHT22;36332;51.384;0.040;2023-09-12T14:50:36;25.70;99.90
27707;DHT22;36332;51.384;0.040;2023-09-12T14:53:13;25.70;99.90
27707;DHT22;36332;51.384;0.040;2023-09-12T14:55:42;25.70;99.90
27707;DHT22;36332;51.384;0.040;2023-09-12T14:58:09;25.50;99.90
27707;DHT22;36332;51.384;0.040;2023-09-12T15:00:37;25.40;99.90
27707;DHT22;36332;51.384;0.040;2023-09-12T15:03:05;25.30;99.90
27707;DHT22;36332;51.384;0.040;2023-09-12T15:05:33;25.30;99.90
27707;DHT22;36332;51.384;0.040;2023-09-12T15:08:01;25.10;99.90
27707;DHT22;36332;51.384;0.040;2023-09-12T15:10:28;25.00;99.90
27707;DHT22;36332;51.384;0.040;2023-09-12T15:12:56;24.90;99.90
27707;DHT22;36332;51.384;0.040;2023-09-12T15:15:23;24.90;99.90
27707;DHT22;36332;51.384;0.040;2023-09-12T15:17:51;24.90;99.90
27707;DHT22;36332;51.384;0.040;2023-09-12T15:20:19;25.00;99.90
27707;DHT22;36332;51.384;0.040;2023-09-12T15:22:46;25.00;99.90
27707;DHT22;36332;51.384;0.040;2023-09-12T15:25:14;25.30;99.90
27707;DHT22;36332;51.384;0.040;2023-09-12T15:27:41;25.40;99.90
27707;DHT22;36332;51.384;0.040;2023-09-12T15:30:10;26.00;99.90
27707;DHT22;36332;51.384;0.040;2023-09-12T15:32:37;26.70;99.90
27707;DHT22;36332;51.384;0.040;2023-09-12T15:35:05;27.20;99.90
27707;DHT22;36332;51.384;0.040;2023-09-12T15:37:33;27.60;99.90
27707;DHT22;36332;51.384;0.040;2023-09-12T15:40:00;27.80;99.90
27707;DHT22;36332;51.384;0.040;2023-09-12T15:42:28;27.70;99.90
27707;DHT22;36332;51.384;0.040;2023-09-12T15:45:04;27.40;99.90
27707;DHT22;36332;51.384;0.040;2023-09-12T15:47:36;26.90;99.90
27707;DHT22;36332;51.384;0.040;2023-09-12T15:50:05;26.40;99.90
27707;DHT22;36332;51.384;0.040;2023-09-12T15:52:33;26.00;99.90
27707;DHT22;36332;51.384;0.040;2023-09-12T15:55:09;25.60;99.90
27707;DHT22;36332;51.384;0.040;2023-09-12T15:57:38;25.30;99.90
27707;DHT22;36332;51.384;0.040;2023-09-12T16:00:09;25.10;99.90
27707;DHT22;36332;51.384;0.040;2023-09-12T16:02:41;24.90;99.90
27707;DHT22;36332;51.384;0.040;2023-09-12T16:05:09;24.70;99.90
27707;DHT22;36332;51.384;0.040;2023-09-12T16:07:38;24.50;99.90
27707;DHT22;36332;51.384;0.040;2023-09-12T16:10:06;24.40;99.90